createdAt,value
2019-06-01T00:00:44.263Z,11.70
2019-06-01T00:03:12.245Z,11.70
2019-06-01T00:05:40.474Z,11.60
2019-06-01T00:08:08.536Z,11.60
2019-06-01T00:10:36.800Z,11.60
2019-06-01T00:13:04.742Z,11.70
2019-06-01T00:15:32.629Z,11.70
2019-06-01T00:18:00.570Z,11.70
2019-06-01T00:20:28.628Z,11.70
2019-06-01T00:22:56.368Z,11.70
2019-06-01T00:25:24.121Z,11.60
2019-06-01T00:27:52.889Z,11.60
2019-06-01T00:30:26.857Z,11.60
2019-06-01T00:32:51.346Z,11.60
2019-06-01T00:35:19.364Z,11.60
2019-06-01T00:37:47.593Z,11.60
2019-06-01T00:40:15.566Z,11.60
2019-06-01T00:42:44.110Z,11.60
2019-06-01T00:45:12.214Z,11.60
2019-06-01T00:47:40.086Z,11.60
2019-06-01T00:50:08.029Z,11.60
2019-06-01T00:52:35.977Z,11.50
2019-06-01T00:55:04.707Z,11.50
2019-06-01T00:57:32.572Z,11.60
2019-06-01T01:00:00.448Z,11.60
2019-06-01T01:02:28.290Z,11.60
2019-06-01T01:05:14.156Z,11.60
2019-06-01T01:07:42.033Z,11.60
2019-06-01T01:10:10.009Z,11.60
2019-06-01T01:12:39.605Z,11.60
2019-06-01T01:15:07.715Z,11.50
2019-06-01T01:17:35.644Z,11.60
2019-06-01T01:20:04.803Z,11.60
2019-06-01T01:22:32.781Z,11.60
2019-06-01T01:25:00.752Z,11.60
2019-06-01T01:27:28.658Z,11.50
2019-06-01T01:29:57.077Z,11.50
2019-06-01T01:32:24.877Z,11.50
2019-06-01T01:34:53.737Z,11.40
2019-06-01T01:37:21.623Z,11.40
2019-06-01T01:39:50.111Z,11.40
2019-06-01T01:42:18.091Z,11.30
2019-06-01T01:44:46.104Z,11.30
2019-06-01T01:47:14.418Z,11.30
2019-06-01T01:49:42.416Z,11.30
2019-06-01T01:52:10.240Z,11.30
2019-06-01T01:54:38.065Z,11.30
2019-06-01T01:57:07.240Z,11.30
2019-06-01T01:59:35.318Z,11.20
2019-06-01T02:02:03.260Z,11.20
2019-06-01T02:04:31.153Z,11.20
2019-06-01T02:07:00.297Z,11.10
2019-06-01T02:09:28.323Z,11.10
2019-06-01T02:11:57.589Z,11.10
2019-06-01T02:14:25.600Z,11.10
2019-06-01T02:16:53.977Z,11.00
2019-06-01T02:19:22.060Z,11.00
2019-06-01T02:21:50.023Z,11.00
2019-06-01T02:24:17.918Z,10.90
2019-06-01T02:26:45.772Z,10.80
2019-06-01T02:29:13.598Z,10.80
2019-06-01T02:31:42.944Z,10.80
2019-06-01T02:34:11.036Z,10.80
2019-06-01T02:36:39.036Z,10.70
2019-06-01T02:39:08.700Z,10.70
2019-06-01T02:41:37.015Z,10.70
2019-06-01T02:44:06.364Z,10.60
2019-06-01T02:46:35.864Z,10.60
2019-06-01T02:49:06.127Z,10.50
2019-06-01T02:51:34.188Z,10.50
2019-06-01T02:54:02.080Z,10.50
2019-06-01T02:56:29.932Z,10.50
2019-06-01T02:58:58.262Z,10.50
2019-06-01T03:01:27.695Z,10.50
2019-06-01T03:03:57.444Z,10.50
2019-06-01T03:06:26.699Z,10.50
2019-06-01T03:08:54.718Z,10.50
2019-06-01T03:11:24.249Z,10.50
2019-06-01T03:13:53.674Z,10.50
2019-06-01T03:16:22.208Z,10.50
2019-06-01T03:18:52.040Z,10.50
2019-06-01T03:21:21.346Z,10.60
2019-06-01T03:23:50.301Z,10.60
2019-06-01T03:26:19.627Z,10.60
2019-06-01T03:28:49.063Z,10.70
2019-06-01T03:31:17.023Z,10.70
2019-06-01T03:33:44.937Z,10.70
2019-06-01T03:36:13.177Z,10.70
2019-06-01T03:38:40.940Z,10.80
2019-06-01T03:41:08.740Z,10.80
2019-06-01T03:43:36.737Z,10.80
2019-06-01T03:46:04.698Z,10.90
2019-06-01T03:48:32.645Z,10.90
2019-06-01T03:51:01.576Z,11.00
2019-06-01T03:53:29.653Z,11.10
2019-06-01T03:55:57.491Z,11.20
2019-06-01T03:58:25.357Z,11.30
2019-06-01T04:00:53.235Z,11.30
2019-06-01T04:03:21.066Z,11.40
2019-06-01T04:05:48.932Z,11.60
2019-06-01T04:08:16.811Z,11.70
2019-06-01T04:10:44.768Z,11.80
2019-06-01T04:13:12.718Z,12.00
2019-06-01T04:15:40.663Z,12.10
2019-06-01T04:18:08.588Z,12.20
2019-06-01T04:20:36.995Z,12.30
2019-06-01T04:23:06.096Z,12.40
2019-06-01T04:25:34.167Z,12.50
2019-06-01T04:28:02.270Z,12.60
2019-06-01T04:30:31.703Z,12.70
2019-06-01T04:32:59.757Z,12.80
2019-06-01T04:35:27.699Z,12.80
2019-06-01T04:37:55.680Z,13.00
2019-06-01T04:40:23.670Z,13.10
2019-06-01T04:42:51.644Z,13.20
2019-06-01T04:45:19.613Z,13.30
2019-06-01T04:47:47.540Z,13.40
2019-06-01T04:50:15.612Z,13.50
2019-06-01T04:52:43.520Z,13.60
2019-06-01T04:55:11.381Z,13.70
2019-06-01T04:57:39.352Z,13.80
2019-06-01T05:00:17.521Z,13.90
2019-06-01T05:02:37.677Z,14.00
2019-06-01T05:05:07.194Z,14.20
2019-06-01T05:07:35.297Z,14.30
2019-06-01T05:10:07.294Z,14.50
2019-06-01T05:12:35.465Z,14.70
2019-06-01T05:15:05.291Z,14.90
2019-06-01T05:17:33.449Z,15.00
2019-06-01T05:20:01.273Z,15.10
2019-06-01T05:22:29.167Z,15.30
2019-06-01T05:24:58.838Z,15.40
2019-06-01T05:27:26.717Z,15.60
2019-06-01T05:29:54.770Z,15.70
2019-06-01T05:32:22.736Z,15.90
2019-06-01T05:34:50.592Z,16.00
2019-06-01T05:37:18.714Z,16.10
2019-06-01T05:39:47.264Z,16.30
2019-06-01T05:42:15.272Z,16.50
2019-06-01T05:44:43.191Z,16.70
2019-06-01T05:47:12.164Z,16.80
2019-06-01T05:49:40.296Z,16.90
2019-06-01T05:52:08.168Z,17.00
2019-06-01T05:54:36.176Z,17.10
2019-06-01T05:57:04.192Z,17.20
2019-06-01T05:59:32.290Z,17.40
2019-06-01T06:02:00.150Z,17.50
2019-06-01T06:04:28.116Z,17.60
2019-06-01T06:06:56.120Z,17.80
2019-06-01T06:09:24.033Z,17.90
2019-06-01T06:11:53.934Z,18.00
2019-06-01T06:14:22.586Z,18.10
2019-06-01T06:16:50.607Z,18.30
2019-06-01T06:19:21.884Z,18.40
2019-06-01T06:21:48.307Z,18.60
2019-06-01T06:24:16.412Z,18.70
2019-06-01T06:26:44.432Z,19.00
2019-06-01T06:29:12.798Z,19.20
2019-06-01T06:31:41.265Z,19.50
2019-06-01T06:34:09.203Z,19.70
2019-06-01T06:36:37.102Z,19.80
2019-06-01T06:39:06.668Z,19.90
2019-06-01T06:41:34.708Z,20.10
2019-06-01T06:44:02.831Z,20.20
2019-06-01T06:46:31.436Z,20.40
2019-06-01T06:48:59.458Z,20.60
2019-06-01T06:51:27.608Z,20.80
2019-06-01T06:53:55.529Z,20.90
2019-06-01T06:56:24.070Z,21.00
2019-06-01T06:58:52.170Z,21.20
2019-06-01T07:01:20.804Z,21.40
2019-06-01T07:03:48.843Z,21.50
2019-06-01T07:06:17.333Z,21.60
2019-06-01T07:08:48.677Z,21.80
2019-06-01T07:11:15.127Z,21.90
2019-06-01T07:13:44.195Z,22.00
2019-06-01T07:16:12.181Z,22.10
2019-06-01T07:18:40.275Z,22.10
2019-06-01T07:21:08.004Z,22.20
2019-06-01T07:23:35.912Z,22.30
2019-06-01T07:26:04.339Z,22.40
2019-06-01T07:28:32.506Z,22.50
2019-06-01T07:31:01.497Z,22.50
2019-06-01T07:33:29.472Z,22.50
2019-06-01T07:35:57.422Z,22.60
2019-06-01T07:38:26.707Z,22.70
2019-06-01T07:40:54.838Z,22.70
2019-06-01T07:43:22.822Z,22.80
2019-06-01T07:45:50.724Z,22.90
2019-06-01T07:48:18.773Z,22.90
2019-06-01T07:50:46.777Z,22.90
2019-06-01T07:53:14.754Z,23.00
2019-06-01T07:55:42.820Z,23.20
2019-06-01T07:58:10.863Z,23.40
2019-06-01T08:00:38.744Z,23.60
2019-06-01T08:03:06.723Z,23.60
2019-06-01T08:05:34.720Z,23.80
2019-06-01T08:08:02.870Z,23.80
2019-06-01T08:10:31.644Z,23.70
2019-06-01T08:12:59.660Z,23.70
2019-06-01T08:15:28.275Z,23.70
2019-06-01T08:17:56.712Z,23.70
2019-06-01T08:20:26.026Z,23.80
2019-06-01T08:22:54.074Z,23.90
2019-06-01T08:25:22.205Z,23.90
2019-06-01T08:27:51.216Z,23.90
2019-06-01T08:30:19.420Z,23.90
2019-06-01T08:32:47.575Z,24.00
2019-06-01T08:35:15.671Z,23.90
2019-06-01T08:37:44.006Z,23.90
2019-06-01T08:40:13.738Z,23.80
2019-06-01T08:42:42.045Z,23.80
2019-06-01T08:45:10.328Z,23.60
2019-06-01T08:47:38.623Z,23.40
2019-06-01T08:50:06.921Z,23.10
2019-06-01T08:52:36.142Z,23.30
2019-06-01T08:55:05.716Z,23.50
2019-06-01T08:57:34.583Z,23.70
2019-06-01T09:00:04.038Z,23.90
2019-06-01T09:02:32.813Z,24.00
2019-06-01T09:05:00.933Z,24.20
2019-06-01T09:07:29.027Z,24.20
2019-06-01T09:09:57.169Z,23.90
2019-06-01T09:12:25.262Z,23.80
2019-06-01T09:14:53.250Z,23.90
2019-06-01T09:17:21.500Z,23.90
2019-06-01T09:19:49.810Z,23.80
2019-06-01T09:22:17.890Z,23.70
2019-06-01T09:24:45.903Z,23.50
2019-06-01T09:27:14.074Z,23.30
2019-06-01T09:29:44.634Z,23.20
2019-06-01T09:32:11.643Z,23.30
2019-06-01T09:34:39.744Z,23.60
2019-06-01T09:37:07.832Z,23.60
2019-06-01T09:39:37.421Z,23.70
2019-06-01T09:42:05.813Z,24.10
2019-06-01T09:44:35.180Z,24.30
2019-06-01T09:47:03.167Z,24.10
2019-06-01T09:49:32.656Z,23.90
2019-06-01T09:52:00.779Z,23.60
2019-06-01T09:54:29.436Z,23.30
2019-06-01T09:57:00.813Z,23.40
2019-06-01T09:59:29.751Z,23.50
2019-06-01T10:01:58.972Z,23.40
2019-06-01T10:04:28.163Z,23.20
2019-06-01T10:06:56.588Z,23.10
2019-06-01T10:09:24.676Z,23.40
2019-06-01T10:11:52.900Z,23.70
2019-06-01T10:14:21.250Z,23.60
2019-06-01T10:16:49.128Z,23.60
2019-06-01T10:19:17.094Z,23.50
2019-06-01T10:21:45.356Z,23.40
2019-06-01T10:24:13.733Z,23.50
2019-06-01T10:26:41.959Z,23.90
2019-06-01T10:29:11.255Z,24.20
2019-06-01T10:31:41.216Z,24.40
2019-06-01T10:34:09.420Z,24.80
2019-06-01T10:36:38.209Z,25.20
2019-06-01T10:39:08.396Z,25.60
2019-06-01T10:41:39.498Z,25.80
2019-06-01T10:44:07.874Z,25.90
2019-06-01T10:46:36.100Z,26.10
2019-06-01T10:49:07.000Z,26.30
2019-06-01T10:51:38.275Z,26.40
2019-06-01T10:54:06.441Z,26.40
2019-06-01T10:56:34.425Z,26.40
2019-06-01T10:59:02.712Z,26.50
2019-06-01T11:01:32.946Z,26.80
2019-06-01T11:04:00.601Z,27.00
2019-06-01T11:06:37.778Z,27.20
2019-06-01T11:08:58.998Z,27.30
2019-06-01T11:11:27.418Z,27.00
2019-06-01T11:13:55.384Z,26.70
2019-06-01T11:16:23.756Z,26.70
2019-06-01T11:18:51.936Z,26.90
2019-06-01T11:21:20.198Z,26.90
2019-06-01T11:23:48.180Z,26.90
2019-06-01T11:26:16.190Z,26.90
2019-06-01T11:28:44.412Z,27.20
2019-06-01T11:31:12.733Z,27.40
2019-06-01T11:33:41.982Z,27.70
2019-06-01T11:36:10.261Z,27.90
2019-06-01T11:38:38.510Z,27.90
2019-06-01T11:41:06.550Z,27.70
2019-06-01T11:43:34.614Z,27.30
2019-06-01T11:46:03.068Z,27.10
2019-06-01T11:48:31.990Z,26.80
2019-06-01T11:51:01.881Z,26.50
2019-06-01T11:53:29.932Z,26.50
2019-06-01T11:55:58.181Z,26.50
2019-06-01T11:58:26.249Z,26.50
2019-06-01T12:00:54.790Z,26.50
2019-06-01T12:03:22.836Z,26.50
2019-06-01T12:05:50.748Z,26.60
2019-06-01T12:08:18.704Z,26.60
2019-06-01T12:10:48.769Z,26.30
2019-06-01T12:13:16.735Z,25.90
2019-06-01T12:15:44.755Z,25.90
2019-06-01T12:18:13.440Z,26.30
2019-06-01T12:20:41.407Z,26.60
2019-06-01T12:23:09.291Z,26.90
2019-06-01T12:25:38.225Z,26.90
2019-06-01T12:28:06.294Z,26.70
2019-06-01T12:30:34.442Z,26.70
2019-06-01T12:33:02.874Z,27.00
2019-06-01T12:35:31.639Z,27.30
2019-06-01T12:38:06.558Z,27.70
2019-06-01T12:40:29.431Z,27.80
2019-06-01T12:42:58.508Z,27.90
2019-06-01T12:45:26.453Z,28.10
2019-06-01T12:47:58.360Z,28.10
2019-06-01T12:50:24.340Z,28.20
2019-06-01T12:52:52.794Z,28.10
2019-06-01T12:55:21.064Z,28.20
2019-06-01T12:57:49.570Z,28.30
2019-06-01T13:00:18.727Z,28.10
2019-06-01T13:02:56.536Z,27.90
2019-06-01T13:05:16.384Z,28.00
2019-06-01T13:07:56.108Z,28.10
2019-06-01T13:10:14.338Z,28.10
2019-06-01T13:12:43.112Z,28.20
2019-06-01T13:15:12.101Z,28.30
2019-06-01T13:17:41.020Z,28.20
2019-06-01T13:20:09.200Z,28.20
2019-06-01T13:22:38.441Z,28.30
2019-06-01T13:25:06.727Z,28.50
2019-06-01T13:27:34.693Z,28.60
2019-06-01T13:30:02.957Z,28.70
2019-06-01T13:32:31.068Z,28.60
2019-06-01T13:34:59.064Z,28.40
2019-06-01T13:37:27.149Z,28.10
2019-06-01T13:39:58.135Z,28.10
2019-06-01T13:42:25.033Z,27.90
2019-06-01T13:44:53.671Z,27.30
2019-06-01T13:47:22.092Z,27.00
2019-06-01T13:49:50.244Z,27.00
2019-06-01T13:52:18.351Z,27.30
2019-06-01T13:54:50.621Z,27.30
2019-06-01T13:57:21.306Z,27.60
2019-06-01T13:59:50.945Z,27.90
2019-06-01T14:02:24.280Z,28.20
2019-06-01T14:04:56.305Z,28.40
2019-06-01T14:07:26.869Z,28.70
2019-06-01T14:09:55.397Z,28.90
2019-06-01T14:12:23.500Z,29.00
2019-06-01T14:14:51.756Z,29.10
2019-06-01T14:17:19.811Z,29.10
2019-06-01T14:19:49.597Z,29.10
2019-06-01T14:22:17.905Z,29.10
2019-06-01T14:24:53.907Z,29.30
2019-06-01T14:27:17.660Z,29.20
2019-06-01T14:29:46.628Z,29.10
2019-06-01T14:32:14.658Z,28.70
2019-06-01T14:34:46.966Z,28.40
2019-06-01T14:37:15.045Z,28.20
2019-06-01T14:39:43.114Z,28.00
2019-06-01T14:42:11.173Z,27.80
2019-06-01T14:44:39.255Z,27.80
2019-06-01T14:47:07.293Z,27.90
2019-06-01T14:49:35.453Z,28.00
2019-06-01T14:52:03.603Z,28.20
2019-06-01T14:54:31.540Z,28.50
2019-06-01T14:56:59.588Z,28.50
2019-06-01T14:59:27.592Z,28.50
2019-06-01T15:01:56.308Z,28.50
2019-06-01T15:04:24.359Z,28.60
2019-06-01T15:06:52.448Z,28.50
2019-06-01T15:09:20.540Z,28.50
2019-06-01T15:11:50.606Z,28.40
2019-06-01T15:14:18.733Z,28.10
2019-06-01T15:16:46.701Z,27.90
2019-06-01T15:19:14.809Z,27.90
2019-06-01T15:21:42.880Z,28.00
2019-06-01T15:24:10.986Z,27.90
2019-06-01T15:26:38.968Z,27.80
2019-06-01T15:29:07.022Z,27.60
2019-06-01T15:31:35.070Z,27.50
2019-06-01T15:34:03.397Z,27.30
2019-06-01T15:36:31.394Z,27.20
2019-06-01T15:38:59.854Z,27.20
2019-06-01T15:41:28.067Z,27.30
2019-06-01T15:43:57.435Z,27.20
2019-06-01T15:46:25.443Z,27.10
2019-06-01T15:48:53.624Z,27.10
2019-06-01T15:51:21.636Z,27.00
2019-06-01T15:53:49.951Z,26.90
2019-06-01T15:56:18.873Z,26.80
2019-06-01T15:58:52.795Z,26.60
2019-06-01T16:01:16.605Z,26.30
2019-06-01T16:03:44.572Z,26.10
2019-06-01T16:06:12.544Z,25.90
2019-06-01T16:08:40.753Z,25.70
2019-06-01T16:11:09.570Z,25.50
2019-06-01T16:13:38.286Z,25.30
2019-06-01T16:16:06.637Z,25.20
2019-06-01T16:18:35.273Z,25.10
2019-06-01T16:21:04.473Z,24.90
2019-06-01T16:23:48.719Z,24.80
2019-06-01T16:26:13.290Z,24.60
2019-06-01T16:28:31.935Z,24.50
2019-06-01T16:31:00.583Z,24.30
2019-06-01T16:33:28.970Z,24.30
2019-06-01T16:35:57.002Z,24.10
2019-06-01T16:38:24.932Z,24.00
2019-06-01T16:40:53.126Z,23.90
2019-06-01T16:43:21.208Z,23.80
2019-06-01T16:45:49.223Z,23.80
2019-06-01T16:48:17.868Z,23.70
2019-06-01T16:50:45.796Z,23.60
2019-06-01T16:53:13.715Z,23.60
2019-06-01T16:55:41.684Z,23.50
2019-06-01T16:58:09.738Z,23.50
2019-06-01T17:00:37.584Z,23.40
2019-06-01T17:03:08.831Z,23.40
2019-06-01T17:05:35.467Z,23.30
2019-06-01T17:08:04.789Z,23.30
2019-06-01T17:10:33.064Z,23.20
2019-06-01T17:13:01.644Z,23.10
2019-06-01T17:15:30.842Z,23.00
2019-06-01T17:18:02.752Z,23.00
2019-06-01T17:20:32.648Z,22.90
2019-06-01T17:23:01.595Z,22.90
2019-06-01T17:25:30.191Z,22.90
2019-06-01T17:27:58.137Z,22.80
2019-06-01T17:30:25.990Z,22.80
2019-06-01T17:32:55.122Z,22.80
2019-06-01T17:35:22.967Z,22.70
2019-06-01T17:37:51.186Z,22.70
2019-06-01T17:40:35.666Z,22.70
2019-06-01T17:42:49.124Z,22.70
2019-06-01T17:45:17.073Z,22.60
2019-06-01T17:47:45.020Z,22.60
2019-06-01T17:50:13.315Z,22.60
2019-06-01T17:52:41.312Z,22.50
2019-06-01T17:55:09.270Z,22.40
2019-06-01T17:57:37.130Z,22.40
2019-06-01T18:00:07.579Z,22.30
2019-06-01T18:02:36.137Z,22.30
2019-06-01T18:05:05.817Z,22.20
2019-06-01T18:07:33.978Z,22.10
2019-06-01T18:10:02.455Z,22.00
2019-06-01T18:12:30.513Z,21.90
2019-06-01T18:14:58.391Z,21.80
2019-06-01T18:17:26.307Z,21.70
2019-06-01T18:19:54.180Z,21.60
2019-06-01T18:22:22.128Z,21.50
2019-06-01T18:24:50.142Z,21.40
2019-06-01T18:27:18.191Z,21.20
2019-06-01T18:29:48.703Z,21.10
2019-06-01T18:32:15.794Z,20.90
2019-06-01T18:34:43.814Z,20.80
2019-06-01T18:37:11.704Z,20.60
2019-06-01T18:39:39.617Z,20.50
2019-06-01T18:42:08.255Z,20.30
2019-06-01T18:44:36.236Z,20.20
2019-06-01T18:47:05.642Z,20.00
2019-06-01T18:49:33.666Z,20.00
2019-06-01T18:52:01.647Z,19.90
2019-06-01T18:54:29.591Z,19.80
2019-06-01T18:57:09.793Z,19.70
2019-06-01T18:59:27.934Z,19.60
2019-06-01T19:01:56.126Z,19.60
2019-06-01T19:04:24.720Z,19.50
2019-06-01T19:06:52.677Z,19.40
2019-06-01T19:09:20.905Z,19.30
2019-06-01T19:11:49.169Z,19.20
2019-06-01T19:14:17.286Z,19.10
2019-06-01T19:16:45.521Z,19.00
2019-06-01T19:19:14.532Z,19.00
2019-06-01T19:21:42.733Z,18.80
2019-06-01T19:24:10.770Z,18.80
2019-06-01T19:26:39.167Z,18.70
2019-06-01T19:29:07.021Z,18.70
2019-06-01T19:31:34.917Z,18.60
2019-06-01T19:34:02.875Z,18.50
2019-06-01T19:36:31.622Z,18.50
2019-06-01T19:38:59.591Z,18.40
2019-06-01T19:41:41.375Z,18.40
2019-06-01T19:43:57.190Z,18.30
2019-06-01T19:46:25.028Z,18.30
2019-06-01T19:48:52.910Z,18.10
2019-06-01T19:51:20.858Z,17.80
2019-06-01T19:53:48.847Z,17.60
2019-06-01T19:56:17.074Z,17.50
2019-06-01T19:58:45.053Z,17.40
2019-06-01T20:01:14.118Z,17.30
2019-06-01T20:03:42.075Z,17.20
2019-06-01T20:06:10.675Z,17.20
2019-06-01T20:08:38.584Z,17.10
2019-06-01T20:11:06.449Z,17.00
2019-06-01T20:13:34.433Z,17.00
2019-06-01T20:16:03.089Z,17.00
2019-06-01T20:18:31.015Z,16.90
2019-06-01T20:20:59.163Z,16.80
2019-06-01T20:23:27.137Z,16.80
2019-06-01T20:25:54.980Z,16.70
2019-06-01T20:28:25.397Z,16.60
2019-06-01T20:30:53.381Z,16.50
2019-06-01T20:33:22.537Z,16.40
2019-06-01T20:35:50.809Z,16.30
2019-06-01T20:38:18.839Z,16.20
2019-06-01T20:40:47.100Z,16.10
2019-06-01T20:43:14.971Z,16.10
2019-06-01T20:45:42.952Z,16.00
2019-06-01T20:48:11.732Z,15.90
2019-06-01T20:50:40.422Z,15.80
2019-06-01T20:53:08.255Z,15.80
2019-06-01T20:55:36.010Z,15.80
2019-06-01T20:58:03.843Z,15.70
2019-06-01T21:00:32.249Z,15.60
2019-06-01T21:03:00.191Z,15.50
2019-06-01T21:05:28.084Z,15.50
2019-06-01T21:07:57.270Z,15.40
2019-06-01T21:10:25.626Z,15.40
2019-06-01T21:12:53.661Z,15.30
2019-06-01T21:15:21.604Z,15.30
2019-06-01T21:17:50.363Z,15.30
2019-06-01T21:20:24.764Z,15.30
2019-06-01T21:22:48.152Z,15.20
2019-06-01T21:25:16.798Z,15.20
2019-06-01T21:27:44.727Z,15.20
2019-06-01T21:30:13.034Z,15.20
2019-06-01T21:32:41.042Z,15.10
2019-06-01T21:35:09.276Z,14.90
2019-06-01T21:37:37.225Z,14.90
2019-06-01T21:40:05.763Z,14.90
2019-06-01T21:42:37.649Z,14.80
2019-06-01T21:45:04.901Z,14.80
2019-06-01T21:47:32.929Z,14.70
2019-06-01T21:50:00.826Z,14.70
2019-06-01T21:52:28.863Z,14.60
2019-06-01T21:54:56.799Z,14.50
2019-06-01T21:57:24.709Z,14.50
2019-06-01T21:59:52.698Z,14.40
2019-06-01T22:02:21.099Z,14.40
2019-06-01T22:04:49.324Z,14.40
2019-06-01T22:07:17.481Z,14.30
2019-06-01T22:09:45.487Z,14.30
2019-06-01T22:12:13.535Z,14.20
2019-06-01T22:14:41.414Z,14.20
2019-06-01T22:17:09.320Z,14.10
2019-06-01T22:19:37.234Z,14.00
2019-06-01T22:22:05.267Z,14.00
2019-06-01T22:24:33.219Z,13.90
2019-06-01T22:27:01.244Z,13.90
2019-06-01T22:29:29.237Z,13.90
2019-06-01T22:31:57.237Z,13.80
2019-06-01T22:34:25.212Z,13.80
2019-06-01T22:36:53.147Z,13.70
2019-06-01T22:39:21.283Z,13.70
2019-06-01T22:41:49.196Z,13.70
2019-06-01T22:44:17.177Z,13.70
2019-06-01T22:46:45.017Z,13.70
2019-06-01T22:49:12.867Z,13.60
2019-06-01T22:51:40.713Z,13.60
2019-06-01T22:54:08.676Z,13.50
2019-06-01T22:56:36.683Z,13.50
2019-06-01T22:59:04.828Z,13.40
2019-06-01T23:01:32.992Z,13.40
2019-06-01T23:04:00.925Z,13.30
2019-06-01T23:06:29.201Z,13.30
2019-06-01T23:08:57.484Z,13.30
2019-06-01T23:11:25.383Z,13.30
2019-06-01T23:13:53.990Z,13.30
2019-06-01T23:16:22.406Z,13.20
2019-06-01T23:18:52.126Z,13.20
2019-06-01T23:21:19.960Z,13.10
2019-06-01T23:23:47.886Z,13.10
2019-06-01T23:26:15.976Z,13.00
2019-06-01T23:28:43.831Z,13.00
2019-06-01T23:31:11.814Z,12.90
2019-06-01T23:33:39.799Z,12.80
2019-06-01T23:36:07.742Z,12.80
2019-06-01T23:38:35.719Z,12.70
2019-06-01T23:41:03.698Z,12.60
2019-06-01T23:43:32.721Z,12.50
2019-06-01T23:46:00.884Z,12.50
2019-06-01T23:48:29.550Z,12.50
2019-06-01T23:50:57.892Z,12.40
2019-06-01T23:53:27.502Z,12.40
2019-06-01T23:55:55.819Z,12.30
2019-06-01T23:58:24.035Z,12.30
